createdAt,value
2018-04-20T17:11:27.217Z,25.00
2018-04-20T17:13:55.216Z,24.90
2018-04-20T17:16:23.356Z,24.80
2018-04-20T17:18:51.355Z,24.70
2018-04-20T17:21:20.676Z,24.70
2018-04-20T17:23:50.116Z,24.60
2018-04-20T17:26:19.717Z,24.60
2018-04-20T17:28:48.995Z,24.50
2018-04-20T17:31:18.195Z,24.50
2018-04-20T17:33:47.156Z,24.50
2018-04-20T17:36:16.695Z,24.50
2018-04-20T17:38:45.319Z,24.50
2018-04-20T17:41:14.435Z,24.50
2018-04-20T17:43:43.671Z,24.50
2018-04-20T17:46:12.914Z,24.40
2018-04-20T17:48:41.675Z,24.40
2018-04-20T17:51:12.170Z,24.40
2018-04-20T17:53:40.636Z,24.30
2018-04-20T17:56:09.678Z,24.30
2018-04-20T17:58:38.754Z,24.20
2018-04-20T18:01:08.675Z,24.00
2018-04-20T18:03:37.914Z,24.00
2018-04-20T18:06:08.715Z,24.00
2018-04-20T18:08:38.056Z,23.90
2018-04-20T18:11:08.995Z,23.80
2018-04-20T18:13:38.275Z,23.80
2018-04-20T18:16:08.290Z,23.60
2018-04-20T18:18:37.784Z,23.60
2018-04-20T18:21:06.759Z,23.50
2018-04-20T18:23:34.996Z,23.50
2018-04-20T18:26:03.836Z,23.40
2018-04-20T18:28:32.476Z,23.30
2018-04-20T18:31:00.936Z,23.30
2018-04-20T18:33:30.678Z,23.30
2018-04-20T18:35:59.717Z,23.20
2018-04-20T18:38:29.196Z,23.10
2018-04-20T18:40:58.536Z,23.00
2018-04-20T18:43:26.924Z,22.90
2018-04-20T18:45:56.115Z,22.90
2018-04-20T18:48:25.337Z,22.80
2018-04-20T18:50:54.436Z,22.70
2018-04-20T18:53:23.676Z,22.60
2018-04-20T18:55:52.995Z,22.50
2018-04-20T18:58:22.436Z,22.50
2018-04-20T19:00:50.910Z,22.40
2018-04-20T19:03:20.346Z,22.40
2018-04-20T19:05:48.887Z,22.30
2018-04-20T19:08:18.647Z,22.30
2018-04-20T19:10:47.387Z,22.20
2018-04-20T19:13:16.226Z,22.10
2018-04-20T19:15:45.626Z,22.10
2018-04-20T19:18:14.846Z,22.00
2018-04-20T19:20:44.241Z,22.00
2018-04-20T19:23:13.387Z,22.00
2018-04-20T19:25:42.629Z,22.00
2018-04-20T19:28:12.646Z,22.00
2018-04-20T19:30:41.807Z,22.00
2018-04-20T19:33:10.749Z,21.90
2018-04-20T19:35:39.627Z,21.90
2018-04-20T19:38:09.387Z,21.90
2018-04-20T19:40:39.407Z,21.80
2018-04-20T19:43:08.666Z,21.70
2018-04-20T19:45:38.406Z,21.70
2018-04-20T19:48:07.666Z,21.60
2018-04-20T19:50:36.267Z,21.60
2018-04-20T19:53:04.914Z,21.50
2018-04-20T19:55:34.127Z,21.40
2018-04-20T19:58:03.385Z,21.40
2018-04-20T20:00:32.627Z,21.30
2018-04-20T20:03:01.126Z,21.30
2018-04-20T20:05:29.869Z,21.20
2018-04-20T20:07:58.847Z,21.20
2018-04-20T20:10:27.886Z,21.20
2018-04-20T20:12:57.645Z,21.10
2018-04-20T20:15:26.863Z,21.10
2018-04-20T20:17:56.345Z,21.00
2018-04-20T20:20:25.084Z,20.90
2018-04-20T20:22:53.852Z,20.90
2018-04-20T20:25:22.829Z,20.80
2018-04-20T20:27:52.326Z,20.70
2018-04-20T20:30:21.566Z,20.60
2018-04-20T20:32:51.586Z,20.60
2018-04-20T20:35:20.846Z,20.50
2018-04-20T20:37:50.125Z,20.50
2018-04-20T20:40:19.085Z,20.50
2018-04-20T20:42:48.207Z,20.40
2018-04-20T20:45:17.326Z,20.40
2018-04-20T20:47:47.088Z,20.40
2018-04-20T20:50:16.340Z,20.40
2018-04-20T20:52:45.077Z,20.30
2018-04-20T20:55:14.237Z,20.30
2018-04-20T20:57:43.317Z,20.30
2018-04-20T21:00:12.597Z,20.30
2018-04-20T21:02:42.579Z,20.30
2018-04-20T21:05:12.077Z,20.20
2018-04-20T21:07:41.379Z,20.20
2018-04-20T21:10:10.362Z,20.10
2018-04-20T21:12:39.597Z,20.00
2018-04-20T21:15:09.897Z,19.80
2018-04-20T21:17:39.097Z,19.80
2018-04-20T21:20:08.357Z,19.70
2018-04-20T21:22:37.337Z,19.70
2018-04-20T21:25:06.877Z,19.70
2018-04-20T21:27:35.997Z,19.60
2018-04-20T21:30:05.305Z,19.60
2018-04-20T21:32:33.938Z,19.60
2018-04-20T21:35:03.777Z,19.60
2018-04-20T21:37:33.365Z,19.50
2018-04-20T21:40:02.305Z,19.50
2018-04-20T21:42:31.362Z,19.50
2018-04-20T21:45:00.579Z,19.40
2018-04-20T21:47:30.097Z,19.40
2018-04-20T21:50:00.297Z,19.30
2018-04-20T21:52:29.618Z,19.30
2018-04-20T21:54:58.740Z,19.30
2018-04-20T21:57:27.596Z,19.30
2018-04-20T21:59:56.877Z,19.30
2018-04-20T22:02:26.096Z,19.20
2018-04-20T22:04:54.838Z,19.30
2018-04-20T22:07:23.837Z,19.40
2018-04-20T22:09:53.857Z,19.40
2018-04-20T22:12:23.618Z,19.30
2018-04-20T22:14:53.119Z,19.30
2018-04-20T22:17:23.117Z,19.20
2018-04-20T22:19:52.359Z,19.10
2018-04-20T22:22:21.638Z,19.10
2018-04-20T22:24:51.377Z,19.10
2018-04-20T22:27:20.379Z,19.10
2018-04-20T22:29:49.879Z,19.00
2018-04-20T22:32:19.137Z,18.90
2018-04-20T22:34:47.616Z,18.90
2018-04-20T22:37:16.872Z,18.80
2018-04-20T22:39:45.680Z,18.80
2018-04-20T22:42:15.117Z,18.80
2018-04-20T22:44:44.877Z,18.80
2018-04-20T22:47:13.876Z,18.80
2018-04-20T22:49:43.693Z,18.70
2018-04-20T22:52:12.597Z,18.70
2018-04-20T22:54:41.869Z,18.70
2018-04-20T22:57:11.369Z,18.70
2018-04-20T22:59:40.649Z,18.50
2018-04-20T23:02:09.569Z,18.40
2018-04-20T23:04:39.149Z,18.40
2018-04-20T23:07:08.129Z,18.40
2018-04-20T23:09:37.929Z,18.30
2018-04-20T23:12:06.608Z,18.30
2018-04-20T23:14:35.996Z,18.30
2018-04-20T23:17:05.329Z,18.30
2018-04-20T23:19:35.049Z,18.20
2018-04-20T23:22:04.269Z,18.20
2018-04-20T23:24:33.890Z,18.20
2018-04-20T23:27:03.649Z,18.20
2018-04-20T23:29:32.631Z,18.20
2018-04-20T23:32:01.629Z,18.30
2018-04-20T23:34:31.029Z,18.30
2018-04-20T23:36:59.488Z,18.40
2018-04-20T23:39:28.612Z,18.40
2018-04-20T23:41:57.809Z,18.40
2018-04-20T23:44:26.849Z,18.60
2018-04-20T23:46:55.430Z,18.70
2018-04-20T23:49:23.809Z,18.80
2018-04-20T23:51:52.330Z,19.00
2018-04-20T23:54:21.690Z,19.10
2018-04-20T23:56:50.530Z,19.20
2018-04-20T23:59:19.790Z,19.30
